createdAt,value
2022-12-12T00:02:08.138Z,12.15
2022-12-12T00:04:57.503Z,12.07
2022-12-12T00:07:43.028Z,11.88
2022-12-12T00:10:28.654Z,11.52
2022-12-12T00:13:14.258Z,11.85
2022-12-12T00:15:59.803Z,8.57
2022-12-12T00:18:45.401Z,11.98
2022-12-12T00:21:31.170Z,11.90
2022-12-12T00:24:16.911Z,11.32
2022-12-12T00:27:02.410Z,11.80
2022-12-12T00:29:55.444Z,12.30
2022-12-12T00:32:41.156Z,13.25
2022-12-12T00:35:26.448Z,12.98
2022-12-12T00:38:11.773Z,12.05
2022-12-12T00:40:59.298Z,13.00
2022-12-12T00:43:44.756Z,12.75
2022-12-12T00:46:30.235Z,11.02
2022-12-12T00:49:15.563Z,13.23
2022-12-12T00:52:00.951Z,12.55
2022-12-12T00:54:46.370Z,14.23
2022-12-12T00:57:31.633Z,13.77
2022-12-12T01:00:17.978Z,13.07
2022-12-12T01:03:03.368Z,12.75
2022-12-12T01:05:49.122Z,13.32
2022-12-12T01:08:35.436Z,11.35
2022-12-12T01:11:22.164Z,14.10
2022-12-12T01:14:07.921Z,14.68
2022-12-12T01:16:53.618Z,13.48
2022-12-12T01:19:39.070Z,13.30
2022-12-12T01:22:24.653Z,11.05
2022-12-12T01:25:12.247Z,12.60
2022-12-12T01:27:59.292Z,12.95
2022-12-12T01:30:44.689Z,10.63
2022-12-12T01:33:30.212Z,12.05
2022-12-12T01:36:18.396Z,10.50
2022-12-12T01:39:04.320Z,10.73
2022-12-12T01:41:49.985Z,10.68
2022-12-12T01:44:46.437Z,9.60
2022-12-12T01:47:31.872Z,10.15
2022-12-12T01:50:17.289Z,10.68
2022-12-12T01:53:02.877Z,11.15
2022-12-12T01:55:49.627Z,10.10
2022-12-12T01:58:35.291Z,10.50
2022-12-12T02:01:22.275Z,9.43
2022-12-12T02:04:09.877Z,10.05
2022-12-12T02:06:56.400Z,9.18
2022-12-12T02:09:42.299Z,9.38
2022-12-12T02:12:27.756Z,11.30
2022-12-12T02:15:14.220Z,10.98
2022-12-12T02:18:15.939Z,10.05
2022-12-12T02:21:45.005Z,8.70
2022-12-12T02:24:53.049Z,8.38
2022-12-12T02:27:38.340Z,10.88
2022-12-12T02:30:51.110Z,10.63
2022-12-12T02:34:10.486Z,10.98
2022-12-12T02:37:11.367Z,11.40
2022-12-12T02:40:23.018Z,9.85
2022-12-12T02:43:36.078Z,10.40
2022-12-12T02:46:28.337Z,10.80
2022-12-12T02:49:18.904Z,11.75
2022-12-12T02:52:05.805Z,11.07
2022-12-12T02:54:51.269Z,11.10
2022-12-12T02:57:36.812Z,10.48
2022-12-12T03:00:23.223Z,10.70
2022-12-12T03:03:41.520Z,10.95
2022-12-12T03:06:57.958Z,10.82
2022-12-12T03:09:56.484Z,9.02
2022-12-12T03:12:52.238Z,12.07
2022-12-12T03:16:11.307Z,11.35
2022-12-12T03:19:08.989Z,11.10
2022-12-12T03:21:59.041Z,11.15
2022-12-12T03:24:55.822Z,10.43
2022-12-12T03:27:45.186Z,10.98
2022-12-12T03:30:37.730Z,10.40
2022-12-12T03:33:51.630Z,11.20
2022-12-12T03:36:47.636Z,10.05
2022-12-12T03:39:47.443Z,10.70
2022-12-12T03:42:42.351Z,12.00
2022-12-12T03:45:43.172Z,10.38
2022-12-12T03:48:31.682Z,11.35
2022-12-12T03:51:22.919Z,9.75
2022-12-12T03:54:48.545Z,10.52
2022-12-12T03:57:49.227Z,9.80
2022-12-12T04:00:37.580Z,10.18
2022-12-12T04:03:35.313Z,12.00
2022-12-12T04:06:32.306Z,9.93
2022-12-12T04:09:38.684Z,9.50
2022-12-12T04:12:58.943Z,10.65
2022-12-12T04:16:06.647Z,9.40
2022-12-12T04:19:09.357Z,9.75
2022-12-12T04:22:18.524Z,12.38
2022-12-12T04:25:15.714Z,11.60
2022-12-12T04:28:05.879Z,10.23
2022-12-12T04:30:51.734Z,10.43
2022-12-12T04:33:47.843Z,9.52
2022-12-12T04:36:35.646Z,9.50
2022-12-12T04:39:21.890Z,10.23
2022-12-12T04:42:11.558Z,10.43
2022-12-12T04:45:06.445Z,9.32
2022-12-12T04:47:55.834Z,9.07
2022-12-12T04:50:42.850Z,8.35
2022-12-12T04:53:34.463Z,8.57
2022-12-12T04:56:26.647Z,9.90
2022-12-12T04:59:12.950Z,9.57
2022-12-12T05:02:09.438Z,8.98
2022-12-12T05:05:17.170Z,8.13
2022-12-12T05:08:18.428Z,7.95
2022-12-12T05:11:06.864Z,8.50
2022-12-12T05:13:52.399Z,7.90
2022-12-12T05:16:55.929Z,8.68
2022-12-12T05:19:41.076Z,9.55
2022-12-12T05:22:26.866Z,8.20
2022-12-12T05:25:14.159Z,8.13
2022-12-12T05:27:59.674Z,10.40
2022-12-12T05:30:45.138Z,9.00
2022-12-12T05:33:30.916Z,9.00
2022-12-12T05:36:16.731Z,8.13
2022-12-12T05:39:02.240Z,8.50
2022-12-12T05:41:48.402Z,7.82
2022-12-12T05:44:34.167Z,8.02
2022-12-12T05:47:19.873Z,6.72
2022-12-12T05:50:06.843Z,9.27
2022-12-12T05:52:52.572Z,6.50
2022-12-12T05:55:39.064Z,7.70
2022-12-12T05:58:24.551Z,7.28
2022-12-12T06:01:10.613Z,7.95
2022-12-12T06:03:56.312Z,7.63
2022-12-12T06:06:41.973Z,6.90
2022-12-12T06:09:27.182Z,6.30
2022-12-12T06:12:12.909Z,6.82
2022-12-12T06:14:58.420Z,8.30
2022-12-12T06:17:43.773Z,7.95
2022-12-12T06:20:30.616Z,6.78
2022-12-12T06:23:15.987Z,5.95
2022-12-12T06:26:01.531Z,9.07
2022-12-12T06:28:47.629Z,7.18
2022-12-12T06:31:34.104Z,7.57
2022-12-12T06:34:19.476Z,6.32
2022-12-12T06:37:07.149Z,7.93
2022-12-12T06:39:52.559Z,7.05
2022-12-12T06:42:40.795Z,7.80
2022-12-12T06:45:28.868Z,8.60
2022-12-12T06:48:14.215Z,8.18
2022-12-12T06:51:05.012Z,6.50
2022-12-12T06:53:51.289Z,6.85
2022-12-12T06:56:36.531Z,6.20
2022-12-12T06:59:22.011Z,6.13
2022-12-12T07:02:09.460Z,8.00
2022-12-12T07:04:55.515Z,7.25
2022-12-12T07:07:41.421Z,8.82
2022-12-12T07:10:27.067Z,7.75
2022-12-12T07:13:12.611Z,7.93
2022-12-12T07:15:58.335Z,7.55
2022-12-12T07:18:44.139Z,8.18
2022-12-12T07:21:30.144Z,7.53
2022-12-12T07:24:15.861Z,7.43
2022-12-12T07:27:02.203Z,8.45
2022-12-12T07:29:47.724Z,7.20
2022-12-12T07:32:33.247Z,7.47
2022-12-12T07:35:18.585Z,6.75
2022-12-12T07:38:05.336Z,7.63
2022-12-12T07:40:50.885Z,7.93
2022-12-12T07:43:41.462Z,7.93
2022-12-12T07:46:28.998Z,7.10
2022-12-12T07:49:14.702Z,6.78
2022-12-12T07:52:00.109Z,6.85
2022-12-12T07:54:45.613Z,6.80
2022-12-12T07:57:31.504Z,7.53
2022-12-12T08:00:17.768Z,6.38
2022-12-12T08:03:03.472Z,7.35
2022-12-12T08:05:49.314Z,7.50
2022-12-12T08:08:35.199Z,7.05
2022-12-12T08:11:22.903Z,7.93
2022-12-12T08:14:12.935Z,8.13
2022-12-12T08:16:59.117Z,8.35
2022-12-12T08:19:44.816Z,7.65
2022-12-12T08:22:30.221Z,8.73
2022-12-12T08:25:15.762Z,8.32
2022-12-12T08:28:01.369Z,7.30
2022-12-12T08:30:51.167Z,7.05
2022-12-12T08:33:37.041Z,6.88
2022-12-12T08:36:25.303Z,7.43
2022-12-12T08:39:14.215Z,8.82
2022-12-12T08:42:00.314Z,9.15
2022-12-12T08:44:46.003Z,7.82
2022-12-12T08:47:31.407Z,10.10
2022-12-12T08:50:16.910Z,9.77
2022-12-12T08:53:02.405Z,10.98
2022-12-12T08:55:48.032Z,11.00
2022-12-12T08:58:33.691Z,12.05
2022-12-12T09:01:22.128Z,12.13
2022-12-12T09:04:07.809Z,11.93
2022-12-12T09:06:53.506Z,11.02
2022-12-12T09:09:39.511Z,12.25
2022-12-12T09:12:24.988Z,9.48
2022-12-12T09:15:10.864Z,9.82
2022-12-12T09:17:56.534Z,9.20
2022-12-12T09:20:41.969Z,9.10
2022-12-12T09:23:28.512Z,8.88
2022-12-12T09:26:14.046Z,9.38
2022-12-12T09:28:59.845Z,8.98
2022-12-12T09:31:45.155Z,10.40
2022-12-12T09:34:30.561Z,8.85
2022-12-12T09:37:16.005Z,10.15
2022-12-12T09:40:01.830Z,9.45
2022-12-12T09:42:51.453Z,8.60
2022-12-12T09:45:38.023Z,9.77
2022-12-12T09:48:43.191Z,9.57
2022-12-12T09:51:29.066Z,11.02
2022-12-12T09:54:18.224Z,13.23
2022-12-12T09:57:18.308Z,11.23
2022-12-12T10:00:12.565Z,12.07
2022-12-12T10:03:13.396Z,12.13
2022-12-12T10:06:36.394Z,18.98
2022-12-12T10:09:40.131Z,13.00
2022-12-12T10:12:26.411Z,13.40
2022-12-12T10:15:29.875Z,14.40
2022-12-12T10:18:28.922Z,12.63
2022-12-12T10:21:27.125Z,12.82
2022-12-12T10:24:36.152Z,13.82
2022-12-12T10:27:23.341Z,12.25
2022-12-12T10:30:18.491Z,12.23
2022-12-12T10:33:06.966Z,11.85
2022-12-12T10:36:07.566Z,13.65
2022-12-12T10:39:11.587Z,18.10
2022-12-12T10:42:26.230Z,14.60
2022-12-12T10:45:17.755Z,12.55
2022-12-12T10:48:03.683Z,12.25
2022-12-12T10:51:01.014Z,10.45
2022-12-12T10:53:46.381Z,12.32
2022-12-12T10:56:31.807Z,12.30
2022-12-12T10:59:22.307Z,10.80
2022-12-12T11:02:36.905Z,10.68
2022-12-12T11:05:27.303Z,10.95
2022-12-12T11:08:31.472Z,10.32
2022-12-12T11:11:25.568Z,11.65
2022-12-12T11:14:33.873Z,11.15
2022-12-12T11:17:25.571Z,12.70
2022-12-12T11:20:18.527Z,11.00
2022-12-12T11:23:04.063Z,10.15
2022-12-12T11:25:58.880Z,9.57
2022-12-12T11:28:47.271Z,8.63
2022-12-12T11:31:35.451Z,9.35
2022-12-12T11:34:21.926Z,11.25
2022-12-12T11:37:16.088Z,11.43
2022-12-12T11:40:02.388Z,11.82
2022-12-12T11:42:48.072Z,12.77
2022-12-12T11:45:33.568Z,10.20
2022-12-12T11:48:35.805Z,10.80
2022-12-12T11:51:30.282Z,11.50
2022-12-12T11:54:21.803Z,12.10
2022-12-12T11:57:30.323Z,11.60
2022-12-12T12:00:25.068Z,10.35
2022-12-12T12:03:24.425Z,10.10
2022-12-12T12:06:34.870Z,9.98
2022-12-12T12:09:39.586Z,13.95
2022-12-12T12:12:40.977Z,13.60
2022-12-12T12:15:41.714Z,14.85
2022-12-12T12:18:48.104Z,13.93
2022-12-12T12:21:48.775Z,14.30
2022-12-12T12:24:49.250Z,16.17
2022-12-12T12:27:59.052Z,18.35
2022-12-12T12:30:53.878Z,19.80
2022-12-12T12:33:54.453Z,18.88
2022-12-12T12:36:48.992Z,19.30
2022-12-12T12:39:46.607Z,19.48
2022-12-12T12:43:03.318Z,20.92
2022-12-12T12:45:57.863Z,19.25
2022-12-12T12:48:55.782Z,17.73
2022-12-12T12:51:50.813Z,18.30
2022-12-12T12:54:40.822Z,16.08
2022-12-12T12:57:39.531Z,17.38
2022-12-12T13:00:28.958Z,17.65
2022-12-12T13:03:20.285Z,16.27
2022-12-12T13:06:12.960Z,16.83
2022-12-12T13:09:07.065Z,14.90
2022-12-12T13:12:01.592Z,16.35
2022-12-12T13:15:08.101Z,16.65
2022-12-12T13:18:05.701Z,16.77
2022-12-12T13:21:41.247Z,16.60
2022-12-12T13:24:34.542Z,21.90
2022-12-12T13:27:46.059Z,22.50
2022-12-12T13:31:21.266Z,20.08
2022-12-12T13:34:11.792Z,20.20
2022-12-12T13:36:58.873Z,16.38
2022-12-12T13:39:45.093Z,15.90
2022-12-12T13:42:56.292Z,16.52
2022-12-12T13:45:46.114Z,16.50
2022-12-12T13:48:44.553Z,16.83
2022-12-12T13:51:43.650Z,16.38
2022-12-12T13:54:32.315Z,17.70
2022-12-12T13:57:27.006Z,18.05
2022-12-12T14:00:17.855Z,17.10
2022-12-12T14:03:23.592Z,17.25
2022-12-12T14:06:11.776Z,16.45
2022-12-12T14:08:58.872Z,16.05
2022-12-12T14:11:44.344Z,18.40
2022-12-12T14:14:31.843Z,17.80
2022-12-12T14:17:23.131Z,20.13
2022-12-12T14:20:23.505Z,19.55
2022-12-12T14:23:24.183Z,17.70
2022-12-12T14:26:27.907Z,16.08
2022-12-12T14:29:16.420Z,17.23
2022-12-12T14:32:04.757Z,16.67
2022-12-12T14:35:14.729Z,15.90
2022-12-12T14:38:21.649Z,15.10
2022-12-12T14:41:17.229Z,15.45
2022-12-12T14:44:36.854Z,16.45
2022-12-12T14:47:16.916Z,15.45
2022-12-12T14:50:10.795Z,16.42
2022-12-12T14:52:57.990Z,16.23
2022-12-12T14:56:12.538Z,14.32
2022-12-12T14:59:05.080Z,14.88
2022-12-12T15:01:57.378Z,15.25
2022-12-12T15:04:49.237Z,13.38
2022-12-12T15:07:39.054Z,12.95
2022-12-12T15:10:27.577Z,12.32
2022-12-12T15:13:21.313Z,11.05
2022-12-12T15:16:07.265Z,10.43
2022-12-12T15:18:54.803Z,11.48
2022-12-12T15:21:40.756Z,8.48
2022-12-12T15:24:29.513Z,9.23
2022-12-12T15:27:21.276Z,9.70
2022-12-12T15:30:32.018Z,10.52
2022-12-12T15:33:25.753Z,9.10
2022-12-12T15:36:27.770Z,8.68
2022-12-12T15:39:15.785Z,9.63
2022-12-12T15:42:01.848Z,10.60
2022-12-12T15:44:50.827Z,10.90
2022-12-12T15:47:36.156Z,11.25
2022-12-12T15:50:43.683Z,10.85
2022-12-12T15:53:29.543Z,10.20
2022-12-12T15:56:24.796Z,10.05
2022-12-12T15:59:10.473Z,9.18
2022-12-12T16:01:56.485Z,14.23
2022-12-12T16:04:54.040Z,13.20
2022-12-12T16:07:40.842Z,14.35
2022-12-12T16:10:26.490Z,12.57
2022-12-12T16:13:18.453Z,11.18
2022-12-12T16:16:35.127Z,11.73
2022-12-12T16:19:45.585Z,11.77
2022-12-12T16:22:49.888Z,11.35
2022-12-12T16:25:35.147Z,11.63
2022-12-12T16:28:27.644Z,10.27
2022-12-12T16:31:16.826Z,11.77
2022-12-12T16:34:03.576Z,10.73
2022-12-12T16:36:49.279Z,11.30
2022-12-12T16:39:34.860Z,12.00
2022-12-12T16:42:22.091Z,11.02
2022-12-12T16:45:07.947Z,11.48
2022-12-12T16:47:53.758Z,16.73
2022-12-12T16:50:39.324Z,17.23
2022-12-12T16:53:24.636Z,14.52
2022-12-12T16:56:12.045Z,13.55
2022-12-12T16:58:57.479Z,14.95
2022-12-12T17:01:42.859Z,15.82
2022-12-12T17:04:28.861Z,15.40
2022-12-12T17:07:14.738Z,13.27
2022-12-12T17:10:00.407Z,14.95
2022-12-12T17:12:46.311Z,14.75
2022-12-12T17:15:32.502Z,13.13
2022-12-12T17:18:18.379Z,12.30
2022-12-12T17:21:04.049Z,14.88
2022-12-12T17:23:49.715Z,14.43
2022-12-12T17:26:36.593Z,15.65
2022-12-12T17:29:22.645Z,14.95
2022-12-12T17:32:08.531Z,11.40
2022-12-12T17:34:54.033Z,15.23
2022-12-12T17:37:39.466Z,13.77
2022-12-12T17:40:25.488Z,12.13
2022-12-12T17:43:10.815Z,12.18
2022-12-12T17:46:06.244Z,12.38
2022-12-12T17:48:53.179Z,12.70
2022-12-12T17:51:38.705Z,12.63
2022-12-12T17:54:23.969Z,12.75
2022-12-12T17:57:10.077Z,11.13
2022-12-12T17:59:58.616Z,11.18
2022-12-12T18:02:44.561Z,14.88
2022-12-12T18:05:29.804Z,13.02
2022-12-12T18:08:15.305Z,16.98
2022-12-12T18:11:01.143Z,12.75
2022-12-12T18:13:51.108Z,19.08
2022-12-12T18:16:37.058Z,12.48
2022-12-12T18:19:25.206Z,13.88
2022-12-12T18:22:10.815Z,14.73
2022-12-12T18:24:56.244Z,13.77
2022-12-12T18:27:41.536Z,12.50
2022-12-12T18:30:27.042Z,15.27
2022-12-12T18:33:12.737Z,18.92
2022-12-12T18:36:06.490Z,17.48
2022-12-12T18:38:52.470Z,18.38
2022-12-12T18:41:37.974Z,16.02
2022-12-12T18:44:23.526Z,17.27
2022-12-12T18:47:09.502Z,13.93
2022-12-12T18:49:54.931Z,16.85
2022-12-12T18:52:40.306Z,15.88
2022-12-12T18:55:29.972Z,25.10
2022-12-12T18:58:15.600Z,16.55
2022-12-12T19:01:15.895Z,18.73
2022-12-12T19:04:09.034Z,14.02
2022-12-12T19:06:56.807Z,16.83
2022-12-12T19:09:45.764Z,17.73
2022-12-12T19:12:31.272Z,24.27
2022-12-12T19:15:17.738Z,20.35
2022-12-12T19:18:03.484Z,14.88
2022-12-12T19:20:49.977Z,17.13
2022-12-12T19:23:36.550Z,13.73
2022-12-12T19:26:28.197Z,15.50
2022-12-12T19:29:18.932Z,16.08
2022-12-12T19:32:04.945Z,18.42
2022-12-12T19:34:50.270Z,19.00
2022-12-12T19:37:37.247Z,19.45
2022-12-12T19:40:23.022Z,16.38
2022-12-12T19:43:08.504Z,15.40
2022-12-12T19:46:03.163Z,15.90
2022-12-12T19:48:53.103Z,18.08
2022-12-12T19:51:39.624Z,28.98
2022-12-12T19:54:25.288Z,23.85
2022-12-12T19:57:10.985Z,26.10
2022-12-12T19:59:56.611Z,27.98
2022-12-12T20:02:42.008Z,22.15
2022-12-12T20:05:27.794Z,21.73
2022-12-12T20:08:13.363Z,17.35
2022-12-12T20:11:14.710Z,23.63
2022-12-12T20:14:01.699Z,18.53
2022-12-12T20:16:47.897Z,17.83
2022-12-12T20:19:33.657Z,22.13
2022-12-12T20:22:19.198Z,18.38
2022-12-12T20:25:04.839Z,18.58
2022-12-12T20:27:50.535Z,19.15
2022-12-12T20:30:35.859Z,19.80
2022-12-12T20:33:21.698Z,23.67
2022-12-12T20:36:19.049Z,20.48
2022-12-12T20:39:07.441Z,28.65
2022-12-12T20:41:54.000Z,32.65
2022-12-12T20:44:39.703Z,55.83
2022-12-12T20:47:25.495Z,28.50
2022-12-12T20:50:11.010Z,28.45
2022-12-12T20:52:56.428Z,62.53
2022-12-12T20:55:41.871Z,26.75
2022-12-12T20:58:27.194Z,28.40
2022-12-12T21:01:15.069Z,37.65
2022-12-12T21:04:02.190Z,26.67
2022-12-12T21:06:49.712Z,26.95
2022-12-12T21:09:35.682Z,27.80
2022-12-12T21:12:21.027Z,37.15
2022-12-12T21:15:07.574Z,36.50
2022-12-12T21:17:53.388Z,34.63
2022-12-12T21:20:44.609Z,35.55
2022-12-12T21:23:30.886Z,38.20
2022-12-12T21:26:22.601Z,31.98
2022-12-12T21:29:11.129Z,33.03
2022-12-12T21:31:56.966Z,32.63
2022-12-12T21:34:42.346Z,35.53
2022-12-12T21:37:28.727Z,34.63
2022-12-12T21:40:14.132Z,30.65
2022-12-12T21:42:59.473Z,33.67
2022-12-12T21:45:45.039Z,34.25
2022-12-12T21:48:30.892Z,34.72
2022-12-12T21:51:16.809Z,30.63
2022-12-12T21:54:06.427Z,31.08
2022-12-12T21:56:53.064Z,30.92
2022-12-12T21:59:38.713Z,33.85
2022-12-12T22:02:24.173Z,28.90
2022-12-12T22:05:09.906Z,30.00
2022-12-12T22:07:55.550Z,29.40
2022-12-12T22:10:41.084Z,30.08
2022-12-12T22:13:26.387Z,28.55
2022-12-12T22:16:17.550Z,26.90
2022-12-12T22:19:10.269Z,28.38
2022-12-12T22:21:55.823Z,27.50
2022-12-12T22:24:41.767Z,29.40
2022-12-12T22:27:27.043Z,30.92
2022-12-12T22:30:12.599Z,29.17
2022-12-12T22:32:58.351Z,30.75
2022-12-12T22:35:43.626Z,31.98
2022-12-12T22:38:29.736Z,33.55
2022-12-12T22:41:15.973Z,31.17
2022-12-12T22:44:04.866Z,34.20
2022-12-12T22:46:52.716Z,29.27
2022-12-12T22:49:38.101Z,30.55
2022-12-12T22:52:25.614Z,25.83
2022-12-12T22:55:11.064Z,25.00
2022-12-12T22:57:56.346Z,22.67
2022-12-12T23:00:42.085Z,28.27
2022-12-12T23:03:28.984Z,28.55
2022-12-12T23:06:35.064Z,26.55
2022-12-12T23:09:22.773Z,27.98
2022-12-12T23:12:08.006Z,27.20
2022-12-12T23:14:53.190Z,26.17
2022-12-12T23:17:38.709Z,24.63
2022-12-12T23:20:24.511Z,27.55
2022-12-12T23:23:10.206Z,25.05
2022-12-12T23:25:55.606Z,24.98
2022-12-12T23:28:41.991Z,24.88
2022-12-12T23:31:31.303Z,24.10
2022-12-12T23:34:20.965Z,24.23
2022-12-12T23:37:06.453Z,22.38
2022-12-12T23:39:52.146Z,20.85
2022-12-12T23:42:37.957Z,21.67
2022-12-12T23:45:23.272Z,19.52
2022-12-12T23:48:08.827Z,22.45
2022-12-12T23:50:54.131Z,21.45
2022-12-12T23:53:39.449Z,23.95
2022-12-12T23:56:25.821Z,26.17
2022-12-12T23:59:17.108Z,24.02
